sensor_id;sensor_type;location;lat;lon;timestamp;temperature;humidity
17202;DHT22;8717;53.588;10.176;2024-03-29T00:00:44;6.20;99.90
17202;DHT22;8717;53.588;10.176;2024-03-29T00:03:10;6.20;99.90
17202;DHT22;8717;53.588;10.176;2024-03-29T00:05:37;6.10;99.90
17202;DHT22;8717;53.588;10.176;2024-03-29T00:08:06;6.10;99.90
17202;DHT22;8717;53.588;10.176;2024-03-29T00:10:33;6.10;99.90
17202;DHT22;8717;53.588;10.176;2024-03-29T00:12:59;6.00;99.90
17202;DHT22;8717;53.588;10.176;2024-03-29T00:15:24;6.00;99.90
17202;DHT22;8717;53.588;10.176;2024-03-29T00:17:50;5.90;99.90
17202;DHT22;8717;53.588;10.176;2024-03-29T00:20:16;5.90;99.90
17202;DHT22;8717;53.588;10.176;2024-03-29T00:22:41;5.80;99.90
17202;DHT22;8717;53.588;10.176;2024-03-29T00:25:07;5.80;99.90
17202;DHT22;8717;53.588;10.176;2024-03-29T00:27:33;5.70;99.90
17202;DHT22;8717;53.588;10.176;2024-03-29T00:29:59;5.70;99.90
17202;DHT22;8717;53.588;10.176;2024-03-29T00:32:25;5.70;99.90
17202;DHT22;8717;53.588;10.176;2024-03-29T00:34:52;5.60;99.90
17202;DHT22;8717;53.588;10.176;2024-03-29T00:37:18;5.50;99.90
17202;DHT22;8717;53.588;10.176;2024-03-29T00:39:44;5.50;99.90
17202;DHT22;8717;53.588;10.176;2024-03-29T00:42:09;5.50;99.90
17202;DHT22;8717;53.588;10.176;2024-03-29T00:44:35;5.40;99.90
17202;DHT22;8717;53.588;10.176;2024-03-29T00:47:01;5.40;99.90
17202;DHT22;8717;53.588;10.176;2024-03-29T00:49:27;5.30;99.90
17202;DHT22;8717;53.588;10.176;2024-03-29T00:51:52;5.30;99.90
17202;DHT22;8717;53.588;10.176;2024-03-29T00:54:18;5.20;99.90
17202;DHT22;8717;53.588;10.176;2024-03-29T00:56:43;5.20;99.90
17202;DHT22;8717;53.588;10.176;2024-03-29T00:59:09;5.10;99.90
17202;DHT22;8717;53.588;10.176;2024-03-29T01:01:34;5.10;99.90
17202;DHT22;8717;53.588;10.176;2024-03-29T01:04:00;5.00;99.90
17202;DHT22;8717;53.588;10.176;2024-03-29T01:06:26;5.00;99.90
17202;DHT22;8717;53.588;10.176;2024-03-29T01:08:51;4.90;99.90
17202;DHT22;8717;53.588;10.176;2024-03-29T01:11:17;4.90;99.90
17202;DHT22;8717;53.588;10.176;2024-03-29T01:13:42;4.90;99.90
17202;DHT22;8717;53.588;10.176;2024-03-29T01:16:08;4.90;99.90
17202;DHT22;8717;53.588;10.176;2024-03-29T01:18:34;4.90;99.90
17202;DHT22;8717;53.588;10.176;2024-03-29T01:20:59;4.80;99.90
17202;DHT22;8717;53.588;10.176;2024-03-29T01:23:25;4.70;99.90
17202;DHT22;8717;53.588;10.176;2024-03-29T01:25:50;4.70;99.90
17202;DHT22;8717;53.588;10.176;2024-03-29T01:28:16;4.70;99.90
17202;DHT22;8717;53.588;10.176;2024-03-29T01:30:41;4.70;99.90
17202;DHT22;8717;53.588;10.176;2024-03-29T01:33:07;4.60;99.90
17202;DHT22;8717;53.588;10.176;2024-03-29T01:35:32;4.60;99.90
17202;DHT22;8717;53.588;10.176;2024-03-29T01:37:58;4.60;99.90
17202;DHT22;8717;53.588;10.176;2024-03-29T01:40:23;4.60;99.90
17202;DHT22;8717;53.588;10.176;2024-03-29T01:42:53;4.50;99.90
17202;DHT22;8717;53.588;10.176;2024-03-29T01:45:19;4.60;99.90
17202;DHT22;8717;53.588;10.176;2024-03-29T01:47:45;4.50;99.90
17202;DHT22;8717;53.588;10.176;2024-03-29T01:50:10;4.50;99.90
17202;DHT22;8717;53.588;10.176;2024-03-29T01:52:36;4.50;99.90
17202;DHT22;8717;53.588;10.176;2024-03-29T01:55:02;4.50;99.90
17202;DHT22;8717;53.588;10.176;2024-03-29T01:57:28;4.50;99.90
17202;DHT22;8717;53.588;10.176;2024-03-29T01:59:53;4.50;99.90
17202;DHT22;8717;53.588;10.176;2024-03-29T02:02:19;4.50;99.90
17202;DHT22;8717;53.588;10.176;2024-03-29T02:04:45;4.50;99.90
17202;DHT22;8717;53.588;10.176;2024-03-29T02:07:10;4.40;99.90
17202;DHT22;8717;53.588;10.176;2024-03-29T02:09:36;4.40;99.90
17202;DHT22;8717;53.588;10.176;2024-03-29T02:12:02;4.40;99.90
17202;DHT22;8717;53.588;10.176;2024-03-29T02:14:27;4.40;99.90
17202;DHT22;8717;53.588;10.176;2024-03-29T02:16:53;4.40;99.90
17202;DHT22;8717;53.588;10.176;2024-03-29T02:19:18;4.40;99.90
17202;DHT22;8717;53.588;10.176;2024-03-29T02:21:48;4.40;99.90
17202;DHT22;8717;53.588;10.176;2024-03-29T02:24:14;4.40;99.90
17202;DHT22;8717;53.588;10.176;2024-03-29T02:26:40;4.40;99.90
17202;DHT22;8717;53.588;10.176;2024-03-29T02:29:05;4.40;99.90
17202;DHT22;8717;53.588;10.176;2024-03-29T02:31:31;4.40;99.90
17202;DHT22;8717;53.588;10.176;2024-03-29T02:33:56;4.30;99.90
17202;DHT22;8717;53.588;10.176;2024-03-29T02:36:22;4.30;99.90
17202;DHT22;8717;53.588;10.176;2024-03-29T02:38:47;4.30;99.90
17202;DHT22;8717;53.588;10.176;2024-03-29T02:41:13;4.30;99.90
17202;DHT22;8717;53.588;10.176;2024-03-29T02:43:38;4.30;99.90
17202;DHT22;8717;53.588;10.176;2024-03-29T02:46:04;4.30;99.90
17202;DHT22;8717;53.588;10.176;2024-03-29T02:48:30;4.20;99.90
17202;DHT22;8717;53.588;10.176;2024-03-29T02:50:55;4.20;99.90
17202;DHT22;8717;53.588;10.176;2024-03-29T02:53:21;4.20;99.90
17202;DHT22;8717;53.588;10.176;2024-03-29T02:55:47;4.20;99.90
17202;DHT22;8717;53.588;10.176;2024-03-29T02:58:12;4.20;99.90
17202;DHT22;8717;53.588;10.176;2024-03-29T03:00:38;4.10;99.90
17202;DHT22;8717;53.588;10.176;2024-03-29T03:03:03;4.10;99.90
17202;DHT22;8717;53.588;10.176;2024-03-29T03:05:29;4.10;99.90
17202;DHT22;8717;53.588;10.176;2024-03-29T03:07:55;4.10;99.90
17202;DHT22;8717;53.588;10.176;2024-03-29T03:10:20;4.10;99.90
17202;DHT22;8717;53.588;10.176;2024-03-29T03:12:46;4.00;99.90
17202;DHT22;8717;53.588;10.176;2024-03-29T03:15:11;4.00;99.90
17202;DHT22;8717;53.588;10.176;2024-03-29T03:17:37;4.00;99.90
17202;DHT22;8717;53.588;10.176;2024-03-29T03:20:02;4.00;99.90
17202;DHT22;8717;53.588;10.176;2024-03-29T03:22:28;4.00;99.90
17202;DHT22;8717;53.588;10.176;2024-03-29T03:24:53;4.00;99.90
17202;DHT22;8717;53.588;10.176;2024-03-29T03:27:19;4.00;99.90
17202;DHT22;8717;53.588;10.176;2024-03-29T03:29:45;4.00;99.90
17202;DHT22;8717;53.588;10.176;2024-03-29T03:32:10;4.00;99.90
17202;DHT22;8717;53.588;10.176;2024-03-29T03:34:36;4.00;99.90
17202;DHT22;8717;53.588;10.176;2024-03-29T03:37:02;4.00;99.90
17202;DHT22;8717;53.588;10.176;2024-03-29T03:39:27;4.00;99.90
17202;DHT22;8717;53.588;10.176;2024-03-29T03:41:53;4.00;99.90
17202;DHT22;8717;53.588;10.176;2024-03-29T03:44:18;4.00;99.90
17202;DHT22;8717;53.588;10.176;2024-03-29T03:46:44;4.00;99.90
17202;DHT22;8717;53.588;10.176;2024-03-29T03:49:09;4.00;99.90
17202;DHT22;8717;53.588;10.176;2024-03-29T03:51:35;4.00;99.90
17202;DHT22;8717;53.588;10.176;2024-03-29T03:54:00;4.00;99.90
17202;DHT22;8717;53.588;10.176;2024-03-29T03:56:26;4.10;99.90
17202;DHT22;8717;53.588;10.176;2024-03-29T03:58:52;4.10;99.90
17202;DHT22;8717;53.588;10.176;2024-03-29T04:01:17;4.10;99.90
17202;DHT22;8717;53.588;10.176;2024-03-29T04:03:43;4.10;99.90
17202;DHT22;8717;53.588;10.176;2024-03-29T04:06:08;4.10;99.90
17202;DHT22;8717;53.588;10.176;2024-03-29T04:08:34;4.20;99.90
17202;DHT22;8717;53.588;10.176;2024-03-29T04:11:03;4.20;99.90
17202;DHT22;8717;53.588;10.176;2024-03-29T04:13:29;4.20;99.90
17202;DHT22;8717;53.588;10.176;2024-03-29T04:16:07;4.20;99.90
17202;DHT22;8717;53.588;10.176;2024-03-29T04:18:33;4.30;99.90
17202;DHT22;8717;53.588;10.176;2024-03-29T04:20:59;4.30;99.90
17202;DHT22;8717;53.588;10.176;2024-03-29T04:23:25;4.30;99.90
17202;DHT22;8717;53.588;10.176;2024-03-29T04:25:57;4.40;99.90
17202;DHT22;8717;53.588;10.176;2024-03-29T04:28:23;4.40;99.90
17202;DHT22;8717;53.588;10.176;2024-03-29T04:30:54;4.40;99.90
17202;DHT22;8717;53.588;10.176;2024-03-29T04:33:19;4.40;99.90
17202;DHT22;8717;53.588;10.176;2024-03-29T04:35:55;4.40;99.90
17202;DHT22;8717;53.588;10.176;2024-03-29T04:38:20;4.50;99.90
17202;DHT22;8717;53.588;10.176;2024-03-29T04:40:47;4.50;99.90
17202;DHT22;8717;53.588;10.176;2024-03-29T04:43:12;4.50;99.90
17202;DHT22;8717;53.588;10.176;2024-03-29T04:45:38;4.50;99.90
17202;DHT22;8717;53.588;10.176;2024-03-29T04:48:04;4.50;99.90
17202;DHT22;8717;53.588;10.176;2024-03-29T04:50:29;4.50;99.90
17202;DHT22;8717;53.588;10.176;2024-03-29T04:52:55;4.50;99.90
17202;DHT22;8717;53.588;10.176;2024-03-29T04:55:21;4.50;99.90
17202;DHT22;8717;53.588;10.176;2024-03-29T04:57:46;4.60;99.90
17202;DHT22;8717;53.588;10.176;2024-03-29T05:00:12;4.60;99.90
17202;DHT22;8717;53.588;10.176;2024-03-29T05:02:38;4.60;99.90
17202;DHT22;8717;53.588;10.176;2024-03-29T05:05:03;4.70;99.90
17202;DHT22;8717;53.588;10.176;2024-03-29T05:07:29;4.70;99.90
17202;DHT22;8717;53.588;10.176;2024-03-29T05:09:54;4.70;99.90
17202;DHT22;8717;53.588;10.176;2024-03-29T05:12:20;4.70;99.90
17202;DHT22;8717;53.588;10.176;2024-03-29T05:14:45;4.70;99.90
17202;DHT22;8717;53.588;10.176;2024-03-29T05:17:11;4.80;99.90
17202;DHT22;8717;53.588;10.176;2024-03-29T05:19:36;4.80;99.90
17202;DHT22;8717;53.588;10.176;2024-03-29T05:22:02;4.80;99.90
17202;DHT22;8717;53.588;10.176;2024-03-29T05:24:27;4.80;99.90
17202;DHT22;8717;53.588;10.176;2024-03-29T05:26:53;4.80;99.90
17202;DHT22;8717;53.588;10.176;2024-03-29T05:29:18;4.90;99.90
17202;DHT22;8717;53.588;10.176;2024-03-29T05:31:44;4.90;99.90
17202;DHT22;8717;53.588;10.176;2024-03-29T05:34:09;4.90;99.90
17202;DHT22;8717;53.588;10.176;2024-03-29T05:36:35;4.90;99.90
17202;DHT22;8717;53.588;10.176;2024-03-29T05:39:00;5.00;99.90
17202;DHT22;8717;53.588;10.176;2024-03-29T05:41:26;5.00;99.90
17202;DHT22;8717;53.588;10.176;2024-03-29T05:43:52;5.00;99.90
17202;DHT22;8717;53.588;10.176;2024-03-29T05:46:17;5.10;99.90
17202;DHT22;8717;53.588;10.176;2024-03-29T05:48:43;5.10;99.90
17202;DHT22;8717;53.588;10.176;2024-03-29T05:51:09;5.10;99.90
17202;DHT22;8717;53.588;10.176;2024-03-29T05:53:34;5.20;99.90
17202;DHT22;8717;53.588;10.176;2024-03-29T05:56:00;5.20;99.90
17202;DHT22;8717;53.588;10.176;2024-03-29T05:58:25;5.20;99.90
17202;DHT22;8717;53.588;10.176;2024-03-29T06:00:51;5.30;99.90
17202;DHT22;8717;53.588;10.176;2024-03-29T06:03:16;5.30;99.90
17202;DHT22;8717;53.588;10.176;2024-03-29T06:05:42;5.30;99.90
17202;DHT22;8717;53.588;10.176;2024-03-29T06:08:08;5.40;99.90
17202;DHT22;8717;53.588;10.176;2024-03-29T06:10:33;5.40;99.90
17202;DHT22;8717;53.588;10.176;2024-03-29T06:12:59;5.50;99.90
17202;DHT22;8717;53.588;10.176;2024-03-29T06:15:24;5.50;99.90
17202;DHT22;8717;53.588;10.176;2024-03-29T06:17:50;5.50;99.90
17202;DHT22;8717;53.588;10.176;2024-03-29T06:20:15;5.60;99.90
17202;DHT22;8717;53.588;10.176;2024-03-29T06:22:41;5.60;99.90
17202;DHT22;8717;53.588;10.176;2024-03-29T06:25:07;5.60;99.90
17202;DHT22;8717;53.588;10.176;2024-03-29T06:27:36;5.70;99.90
17202;DHT22;8717;53.588;10.176;2024-03-29T06:30:03;5.70;99.90
17202;DHT22;8717;53.588;10.176;2024-03-29T06:32:28;5.80;99.90
17202;DHT22;8717;53.588;10.176;2024-03-29T06:34:54;5.80;99.90
17202;DHT22;8717;53.588;10.176;2024-03-29T06:37:19;5.80;99.90
17202;DHT22;8717;53.588;10.176;2024-03-29T06:39:45;5.90;99.90
17202;DHT22;8717;53.588;10.176;2024-03-29T06:42:10;5.90;99.90
17202;DHT22;8717;53.588;10.176;2024-03-29T06:44:36;6.00;99.90
17202;DHT22;8717;53.588;10.176;2024-03-29T06:47:02;6.00;99.90
17202;DHT22;8717;53.588;10.176;2024-03-29T06:49:28;6.00;99.90
17202;DHT22;8717;53.588;10.176;2024-03-29T06:51:54;6.10;99.90
17202;DHT22;8717;53.588;10.176;2024-03-29T06:54:19;6.10;99.90
17202;DHT22;8717;53.588;10.176;2024-03-29T06:56:45;6.10;99.90
17202;DHT22;8717;53.588;10.176;2024-03-29T06:59:11;6.20;99.90
17202;DHT22;8717;53.588;10.176;2024-03-29T07:01:36;6.20;99.90
17202;DHT22;8717;53.588;10.176;2024-03-29T07:04:02;6.20;99.90
17202;DHT22;8717;53.588;10.176;2024-03-29T07:06:27;6.30;99.90
17202;DHT22;8717;53.588;10.176;2024-03-29T07:08:53;6.30;99.90
17202;DHT22;8717;53.588;10.176;2024-03-29T07:11:18;6.40;99.90
17202;DHT22;8717;53.588;10.176;2024-03-29T07:13:44;6.40;99.90
17202;DHT22;8717;53.588;10.176;2024-03-29T07:16:09;6.40;99.90
17202;DHT22;8717;53.588;10.176;2024-03-29T07:18:35;6.50;99.90
17202;DHT22;8717;53.588;10.176;2024-03-29T07:21:00;6.50;99.90
17202;DHT22;8717;53.588;10.176;2024-03-29T07:23:26;6.50;99.90
17202;DHT22;8717;53.588;10.176;2024-03-29T07:26:00;6.60;99.90
17202;DHT22;8717;53.588;10.176;2024-03-29T07:28:27;6.60;99.90
17202;DHT22;8717;53.588;10.176;2024-03-29T07:30:52;6.60;99.90
17202;DHT22;8717;53.588;10.176;2024-03-29T07:33:19;6.70;99.90
17202;DHT22;8717;53.588;10.176;2024-03-29T07:35:44;6.80;99.90
17202;DHT22;8717;53.588;10.176;2024-03-29T07:38:10;6.80;99.90
17202;DHT22;8717;53.588;10.176;2024-03-29T07:40:35;6.90;99.90
17202;DHT22;8717;53.588;10.176;2024-03-29T07:43:01;7.00;99.90
17202;DHT22;8717;53.588;10.176;2024-03-29T07:45:27;7.00;99.90
17202;DHT22;8717;53.588;10.176;2024-03-29T07:47:53;7.10;99.90
17202;DHT22;8717;53.588;10.176;2024-03-29T07:50:19;7.20;99.90
17202;DHT22;8717;53.588;10.176;2024-03-29T07:52:45;7.20;99.90
17202;DHT22;8717;53.588;10.176;2024-03-29T07:55:11;7.30;99.90
17202;DHT22;8717;53.588;10.176;2024-03-29T07:57:36;7.30;99.90
17202;DHT22;8717;53.588;10.176;2024-03-29T08:00:02;7.40;99.90
17202;DHT22;8717;53.588;10.176;2024-03-29T08:02:32;7.50;99.90
17202;DHT22;8717;53.588;10.176;2024-03-29T08:04:58;7.50;99.90
17202;DHT22;8717;53.588;10.176;2024-03-29T08:07:23;7.60;99.90
17202;DHT22;8717;53.588;10.176;2024-03-29T08:09:49;7.60;99.90
17202;DHT22;8717;53.588;10.176;2024-03-29T08:12:14;7.70;99.90
17202;DHT22;8717;53.588;10.176;2024-03-29T08:14:43;7.80;99.90
17202;DHT22;8717;53.588;10.176;2024-03-29T08:17:09;7.90;99.90
17202;DHT22;8717;53.588;10.176;2024-03-29T08:19:39;7.90;99.90
17202;DHT22;8717;53.588;10.176;2024-03-29T08:22:05;8.00;99.90
17202;DHT22;8717;53.588;10.176;2024-03-29T08:24:30;8.10;99.90
17202;DHT22;8717;53.588;10.176;2024-03-29T08:26:56;8.10;99.90
17202;DHT22;8717;53.588;10.176;2024-03-29T08:29:21;8.20;99.90
17202;DHT22;8717;53.588;10.176;2024-03-29T08:31:47;8.20;99.90
17202;DHT22;8717;53.588;10.176;2024-03-29T08:34:12;8.20;99.90
17202;DHT22;8717;53.588;10.176;2024-03-29T08:36:38;8.30;99.90
17202;DHT22;8717;53.588;10.176;2024-03-29T08:39:03;8.30;99.90
17202;DHT22;8717;53.588;10.176;2024-03-29T08:41:29;8.30;99.90
17202;DHT22;8717;53.588;10.176;2024-03-29T08:43:57;8.30;99.90
17202;DHT22;8717;53.588;10.176;2024-03-29T08:46:23;8.30;99.90
17202;DHT22;8717;53.588;10.176;2024-03-29T08:48:48;8.30;99.90
17202;DHT22;8717;53.588;10.176;2024-03-29T08:51:14;8.20;99.90
17202;DHT22;8717;53.588;10.176;2024-03-29T08:53:39;8.20;99.90
17202;DHT22;8717;53.588;10.176;2024-03-29T08:56:05;8.10;99.90
17202;DHT22;8717;53.588;10.176;2024-03-29T08:58:30;8.10;99.90
17202;DHT22;8717;53.588;10.176;2024-03-29T09:00:56;8.10;99.90
17202;DHT22;8717;53.588;10.176;2024-03-29T09:03:22;8.10;99.90
17202;DHT22;8717;53.588;10.176;2024-03-29T09:05:49;8.10;99.90
17202;DHT22;8717;53.588;10.176;2024-03-29T09:08:14;8.10;99.90
17202;DHT22;8717;53.588;10.176;2024-03-29T09:10:40;8.10;99.90
17202;DHT22;8717;53.588;10.176;2024-03-29T09:13:05;8.10;99.90
17202;DHT22;8717;53.588;10.176;2024-03-29T09:15:31;8.10;99.90
17202;DHT22;8717;53.588;10.176;2024-03-29T09:17:56;8.10;99.90
17202;DHT22;8717;53.588;10.176;2024-03-29T09:20:22;8.10;99.90
17202;DHT22;8717;53.588;10.176;2024-03-29T09:22:50;8.20;99.90
17202;DHT22;8717;53.588;10.176;2024-03-29T09:25:16;8.20;99.90
17202;DHT22;8717;53.588;10.176;2024-03-29T09:27:41;8.30;99.90
17202;DHT22;8717;53.588;10.176;2024-03-29T09:30:11;8.30;99.90
17202;DHT22;8717;53.588;10.176;2024-03-29T09:32:37;8.30;99.90
17202;DHT22;8717;53.588;10.176;2024-03-29T09:35:02;8.40;99.90
17202;DHT22;8717;53.588;10.176;2024-03-29T09:37:28;8.40;99.90
17202;DHT22;8717;53.588;10.176;2024-03-29T09:39:53;8.50;99.90
17202;DHT22;8717;53.588;10.176;2024-03-29T09:42:21;8.50;99.90
17202;DHT22;8717;53.588;10.176;2024-03-29T09:44:50;8.50;99.90
17202;DHT22;8717;53.588;10.176;2024-03-29T09:47:17;8.50;99.90
17202;DHT22;8717;53.588;10.176;2024-03-29T09:49:44;8.50;99.90
17202;DHT22;8717;53.588;10.176;2024-03-29T09:52:10;8.50;99.90
17202;DHT22;8717;53.588;10.176;2024-03-29T09:54:36;8.50;99.90
17202;DHT22;8717;53.588;10.176;2024-03-29T09:57:02;8.60;99.90
17202;DHT22;8717;53.588;10.176;2024-03-29T09:59:28;8.60;99.90
17202;DHT22;8717;53.588;10.176;2024-03-29T10:01:55;8.60;99.90
17202;DHT22;8717;53.588;10.176;2024-03-29T10:04:22;8.60;99.90
17202;DHT22;8717;53.588;10.176;2024-03-29T10:06:49;8.70;99.90
17202;DHT22;8717;53.588;10.176;2024-03-29T10:09:19;8.70;99.90
17202;DHT22;8717;53.588;10.176;2024-03-29T10:11:45;8.70;99.90
17202;DHT22;8717;53.588;10.176;2024-03-29T10:14:11;8.70;99.90
17202;DHT22;8717;53.588;10.176;2024-03-29T10:16:37;8.70;99.90
17202;DHT22;8717;53.588;10.176;2024-03-29T10:19:03;8.80;99.90
17202;DHT22;8717;53.588;10.176;2024-03-29T10:21:29;8.80;99.90
17202;DHT22;8717;53.588;10.176;2024-03-29T10:23:54;8.80;99.90
17202;DHT22;8717;53.588;10.176;2024-03-29T10:26:21;8.80;99.90
17202;DHT22;8717;53.588;10.176;2024-03-29T10:28:47;8.80;99.90
17202;DHT22;8717;53.588;10.176;2024-03-29T10:31:13;8.80;99.90
17202;DHT22;8717;53.588;10.176;2024-03-29T10:33:38;8.80;99.90
17202;DHT22;8717;53.588;10.176;2024-03-29T10:36:04;8.80;99.90
17202;DHT22;8717;53.588;10.176;2024-03-29T10:38:30;8.80;99.90
17202;DHT22;8717;53.588;10.176;2024-03-29T10:40:56;8.80;99.90
17202;DHT22;8717;53.588;10.176;2024-03-29T10:43:23;8.80;99.90
17202;DHT22;8717;53.588;10.176;2024-03-29T10:45:49;8.80;99.90
17202;DHT22;8717;53.588;10.176;2024-03-29T10:48:15;8.80;99.90
17202;DHT22;8717;53.588;10.176;2024-03-29T10:50:42;8.80;99.90
17202;DHT22;8717;53.588;10.176;2024-03-29T10:53:09;8.80;99.90
17202;DHT22;8717;53.588;10.176;2024-03-29T10:55:36;8.80;99.90
17202;DHT22;8717;53.588;10.176;2024-03-29T10:58:02;8.90;99.90
17202;DHT22;8717;53.588;10.176;2024-03-29T11:00:31;8.90;99.90
17202;DHT22;8717;53.588;10.176;2024-03-29T11:05:30;8.90;99.90
17202;DHT22;8717;53.588;10.176;2024-03-29T11:08:00;8.90;99.90
17202;DHT22;8717;53.588;10.176;2024-03-29T11:10:39;9.00;99.90
17202;DHT22;8717;53.588;10.176;2024-03-29T11:13:31;9.00;99.90
17202;DHT22;8717;53.588;10.176;2024-03-29T11:15:58;9.00;99.90
17202;DHT22;8717;53.588;10.176;2024-03-29T11:18:24;9.00;99.90
17202;DHT22;8717;53.588;10.176;2024-03-29T11:20:50;9.00;99.90
17202;DHT22;8717;53.588;10.176;2024-03-29T11:23:21;9.00;99.90
17202;DHT22;8717;53.588;10.176;2024-03-29T11:25:50;9.00;99.90
17202;DHT22;8717;53.588;10.176;2024-03-29T11:28:25;9.10;99.90
17202;DHT22;8717;53.588;10.176;2024-03-29T11:30:50;9.10;99.90
17202;DHT22;8717;53.588;10.176;2024-03-29T11:36:17;9.20;99.90
17202;DHT22;8717;53.588;10.176;2024-03-29T11:38:45;9.20;99.90
17202;DHT22;8717;53.588;10.176;2024-03-29T11:41:15;9.30;99.90
17202;DHT22;8717;53.588;10.176;2024-03-29T11:43:41;9.30;99.90
17202;DHT22;8717;53.588;10.176;2024-03-29T11:46:08;9.40;99.90
17202;DHT22;8717;53.588;10.176;2024-03-29T11:48:34;9.50;99.90
17202;DHT22;8717;53.588;10.176;2024-03-29T11:51:01;9.60;99.90
17202;DHT22;8717;53.588;10.176;2024-03-29T11:53:27;9.80;99.90
17202;DHT22;8717;53.588;10.176;2024-03-29T11:55:53;10.00;99.90
17202;DHT22;8717;53.588;10.176;2024-03-29T11:58:26;10.20;99.90
17202;DHT22;8717;53.588;10.176;2024-03-29T12:00:53;10.40;99.90
17202;DHT22;8717;53.588;10.176;2024-03-29T12:03:20;10.60;99.90
17202;DHT22;8717;53.588;10.176;2024-03-29T12:05:47;10.80;99.90
17202;DHT22;8717;53.588;10.176;2024-03-29T12:08:12;10.90;99.90
17202;DHT22;8717;53.588;10.176;2024-03-29T12:10:40;11.00;99.90
17202;DHT22;8717;53.588;10.176;2024-03-29T12:13:06;11.10;99.90
17202;DHT22;8717;53.588;10.176;2024-03-29T12:15:32;11.20;99.90
17202;DHT22;8717;53.588;10.176;2024-03-29T12:18:03;11.30;99.90
17202;DHT22;8717;53.588;10.176;2024-03-29T12:20:29;11.30;99.90
17202;DHT22;8717;53.588;10.176;2024-03-29T12:22:54;11.30;99.90
17202;DHT22;8717;53.588;10.176;2024-03-29T12:25:20;11.40;99.90
17202;DHT22;8717;53.588;10.176;2024-03-29T12:27:47;11.50;99.90
17202;DHT22;8717;53.588;10.176;2024-03-29T12:30:13;11.60;99.90
17202;DHT22;8717;53.588;10.176;2024-03-29T12:32:39;11.70;99.90
17202;DHT22;8717;53.588;10.176;2024-03-29T12:35:09;11.80;99.90
17202;DHT22;8717;53.588;10.176;2024-03-29T12:37:34;12.00;99.90
17202;DHT22;8717;53.588;10.176;2024-03-29T12:40:00;12.20;99.90
17202;DHT22;8717;53.588;10.176;2024-03-29T12:42:25;12.40;99.90
17202;DHT22;8717;53.588;10.176;2024-03-29T12:44:51;12.70;99.90
17202;DHT22;8717;53.588;10.176;2024-03-29T12:47:16;12.90;99.90
17202;DHT22;8717;53.588;10.176;2024-03-29T12:49:42;13.10;99.90
17202;DHT22;8717;53.588;10.176;2024-03-29T12:52:07;13.30;99.90
17202;DHT22;8717;53.588;10.176;2024-03-29T12:54:33;13.40;99.90
17202;DHT22;8717;53.588;10.176;2024-03-29T12:56:58;13.50;99.90
17202;DHT22;8717;53.588;10.176;2024-03-29T12:59:28;13.50;99.90
17202;DHT22;8717;53.588;10.176;2024-03-29T13:01:54;13.60;99.90
17202;DHT22;8717;53.588;10.176;2024-03-29T13:04:19;13.60;99.90
17202;DHT22;8717;53.588;10.176;2024-03-29T13:06:45;13.60;99.90
17202;DHT22;8717;53.588;10.176;2024-03-29T13:09:10;13.60;99.90
17202;DHT22;8717;53.588;10.176;2024-03-29T13:11:36;13.60;99.90
17202;DHT22;8717;53.588;10.176;2024-03-29T13:14:01;13.60;99.90
17202;DHT22;8717;53.588;10.176;2024-03-29T13:16:27;13.60;99.90
17202;DHT22;8717;53.588;10.176;2024-03-29T13:18:52;13.60;99.90
17202;DHT22;8717;53.588;10.176;2024-03-29T13:21:18;13.60;99.90
17202;DHT22;8717;53.588;10.176;2024-03-29T13:23:43;13.60;99.90
17202;DHT22;8717;53.588;10.176;2024-03-29T13:26:08;13.60;99.90
17202;DHT22;8717;53.588;10.176;2024-03-29T13:28:34;13.50;99.90
17202;DHT22;8717;53.588;10.176;2024-03-29T13:30:59;13.50;99.90
17202;DHT22;8717;53.588;10.176;2024-03-29T13:33:25;13.50;99.90
17202;DHT22;8717;53.588;10.176;2024-03-29T13:35:52;13.50;99.90
17202;DHT22;8717;53.588;10.176;2024-03-29T13:38:18;13.50;99.90
17202;DHT22;8717;53.588;10.176;2024-03-29T13:40:44;13.50;99.90
17202;DHT22;8717;53.588;10.176;2024-03-29T13:43:09;13.50;99.90
17202;DHT22;8717;53.588;10.176;2024-03-29T13:45:35;13.50;99.90
17202;DHT22;8717;53.588;10.176;2024-03-29T13:48:00;13.50;99.90
17202;DHT22;8717;53.588;10.176;2024-03-29T13:50:26;13.40;99.90
17202;DHT22;8717;53.588;10.176;2024-03-29T13:52:51;13.40;99.90
17202;DHT22;8717;53.588;10.176;2024-03-29T13:55:17;13.40;99.90
17202;DHT22;8717;53.588;10.176;2024-03-29T13:57:42;13.30;99.90
17202;DHT22;8717;53.588;10.176;2024-03-29T14:00:08;13.20;99.90
17202;DHT22;8717;53.588;10.176;2024-03-29T14:02:33;13.20;99.90
17202;DHT22;8717;53.588;10.176;2024-03-29T14:04:59;13.20;99.90
17202;DHT22;8717;53.588;10.176;2024-03-29T14:07:25;13.20;99.90
17202;DHT22;8717;53.588;10.176;2024-03-29T14:09:51;13.20;99.90
17202;DHT22;8717;53.588;10.176;2024-03-29T14:12:16;13.30;99.90
17202;DHT22;8717;53.588;10.176;2024-03-29T14:14:42;13.40;99.90
17202;DHT22;8717;53.588;10.176;2024-03-29T14:17:07;13.50;99.90
17202;DHT22;8717;53.588;10.176;2024-03-29T14:19:33;13.50;99.90
17202;DHT22;8717;53.588;10.176;2024-03-29T14:22:03;13.60;99.90
17202;DHT22;8717;53.588;10.176;2024-03-29T14:24:29;13.70;99.90
17202;DHT22;8717;53.588;10.176;2024-03-29T14:26:54;13.80;99.90
17202;DHT22;8717;53.588;10.176;2024-03-29T14:29:20;13.80;99.90
17202;DHT22;8717;53.588;10.176;2024-03-29T14:31:45;13.80;99.90
17202;DHT22;8717;53.588;10.176;2024-03-29T14:34:11;13.80;99.90
17202;DHT22;8717;53.588;10.176;2024-03-29T14:36:36;13.90;99.90
17202;DHT22;8717;53.588;10.176;2024-03-29T14:39:02;13.90;99.90
17202;DHT22;8717;53.588;10.176;2024-03-29T14:41:28;14.00;99.90
17202;DHT22;8717;53.588;10.176;2024-03-29T14:43:54;14.00;99.90
17202;DHT22;8717;53.588;10.176;2024-03-29T14:46:19;14.10;99.90
17202;DHT22;8717;53.588;10.176;2024-03-29T14:48:45;14.10;99.90
17202;DHT22;8717;53.588;10.176;2024-03-29T14:51:10;14.20;99.90
17202;DHT22;8717;53.588;10.176;2024-03-29T14:53:35;14.20;99.90
17202;DHT22;8717;53.588;10.176;2024-03-29T14:56:01;14.20;99.90
17202;DHT22;8717;53.588;10.176;2024-03-29T14:58:26;14.20;99.90
17202;DHT22;8717;53.588;10.176;2024-03-29T15:00:52;14.10;99.90
17202;DHT22;8717;53.588;10.176;2024-03-29T15:03:17;14.10;99.90
17202;DHT22;8717;53.588;10.176;2024-03-29T15:05:43;14.10;99.90
17202;DHT22;8717;53.588;10.176;2024-03-29T15:08:08;14.10;99.90
17202;DHT22;8717;53.588;10.176;2024-03-29T15:10:34;14.10;99.90
17202;DHT22;8717;53.588;10.176;2024-03-29T15:12:59;14.10;99.90
17202;DHT22;8717;53.588;10.176;2024-03-29T15:15:25;14.20;99.90
17202;DHT22;8717;53.588;10.176;2024-03-29T15:17:50;14.20;99.90
17202;DHT22;8717;53.588;10.176;2024-03-29T15:20:16;14.20;99.90
17202;DHT22;8717;53.588;10.176;2024-03-29T15:22:42;14.20;99.90
17202;DHT22;8717;53.588;10.176;2024-03-29T15:25:07;14.10;99.90
17202;DHT22;8717;53.588;10.176;2024-03-29T15:27:33;14.10;99.90
17202;DHT22;8717;53.588;10.176;2024-03-29T15:29:59;14.00;99.90
17202;DHT22;8717;53.588;10.176;2024-03-29T15:32:24;14.00;99.90
17202;DHT22;8717;53.588;10.176;2024-03-29T15:34:50;14.00;99.90
17202;DHT22;8717;53.588;10.176;2024-03-29T15:37:15;14.00;99.90
17202;DHT22;8717;53.588;10.176;2024-03-29T15:39:41;13.90;99.90